Time;durP1;ratioP1;P1;durP2;ratioP2;P2;SDS_P1;SDS_P2;PMS_P1;PMS_P2;Temp;Humidity;BMP_temperature;BMP_pressure;BME280_temperature;BME280_humidity;BME280_pressure;Samples;Min_cycle;Max_cycle;Signal;HPM_P1;HPM_P2
2022/02/27 00:01:58;;;;;;;8.93;2.90;;;2.50;99.90;;;;;;4976460;28;20039;-78
2022/02/27 00:04:24;;;;;;;14.17;3.10;;;2.50;99.90;;;;;;4976251;28;20448;-79
2022/02/27 00:06:49;;;;;;;12.43;3.10;;;2.50;99.90;;;;;;4975345;28;20038;-78
2022/02/27 00:09:15;;;;;;;8.80;3.17;;;2.40;99.90;;;;;;4977136;28;20031;-79
2022/02/27 00:11:41;;;;;;;11.27;3.00;;;2.40;99.90;;;;;;4974819;28;20045;-81
2022/02/27 00:14:06;;;;;;;10.20;2.70;;;2.40;99.90;;;;;;4976134;28;20107;-82
2022/02/27 00:16:33;;;;;;;5.90;2.53;;;2.40;99.90;;;;;;4974884;28;20031;-83
2022/02/27 00:18:59;;;;;;;8.60;2.80;;;2.30;99.90;;;;;;4977318;28;20118;-80
2022/02/27 00:21:24;;;;;;;9.80;3.10;;;2.40;99.90;;;;;;4977174;28;20491;-79
2022/02/27 00:23:50;;;;;;;9.07;3.50;;;2.30;99.90;;;;;;4974546;28;20097;-76
2022/02/27 00:26:16;;;;;;;5.60;3.00;;;2.30;99.90;;;;;;4975017;28;20031;-76
2022/02/27 00:28:41;;;;;;;10.87;3.40;;;2.30;99.90;;;;;;4974434;28;20384;-78
2022/02/27 00:31:08;;;;;;;11.57;3.13;;;2.20;99.90;;;;;;4973733;28;20488;-78
2022/02/27 00:33:33;;;;;;;10.03;3.20;;;2.20;99.90;;;;;;4974333;28;20051;-78
2022/02/27 00:35:59;;;;;;;8.47;2.90;;;2.20;99.90;;;;;;4975051;28;20480;-78
2022/02/27 00:38:24;;;;;;;8.33;2.80;;;2.20;99.90;;;;;;4975450;28;20169;-79
2022/02/27 00:40:50;;;;;;;7.80;2.60;;;2.20;99.90;;;;;;4992231;28;20209;-80
2022/02/27 00:43:16;;;;;;;5.00;2.70;;;2.20;99.90;;;;;;4979321;28;20038;-80
2022/02/27 00:45:41;;;;;;;7.10;2.50;;;2.20;99.90;;;;;;4995988;28;20108;-80
2022/02/27 00:48:07;;;;;;;8.43;2.70;;;2.10;99.90;;;;;;4979330;28;20081;-79
2022/02/27 00:50:33;;;;;;;9.23;2.67;;;2.10;99.90;;;;;;4977932;28;20034;-78
2022/02/27 00:52:58;;;;;;;7.10;2.70;;;2.10;99.90;;;;;;4977913;28;20093;-77
2022/02/27 00:55:24;;;;;;;7.20;2.53;;;2.10;99.90;;;;;;4994990;28;20039;-78
2022/02/27 00:57:50;;;;;;;10.00;3.23;;;2.10;99.90;;;;;;4978117;28;20121;-78
2022/02/27 01:00:16;;;;;;;6.07;2.70;;;2.10;99.90;;;;;;4995714;28;20030;-76
2022/02/27 01:02:41;;;;;;;10.70;3.27;;;2.10;99.90;;;;;;4977639;28;20483;-76
2022/02/27 01:05:07;;;;;;;7.43;2.80;;;2.10;99.90;;;;;;4978292;28;20022;-75
2022/02/27 01:07:33;;;;;;;7.33;3.20;;;2.10;99.90;;;;;;4977453;28;20030;-78
2022/02/27 01:09:59;;;;;;;10.83;3.00;;;2.10;99.90;;;;;;4977951;28;20030;-79
2022/02/27 01:12:24;;;;;;;11.37;3.23;;;2.10;99.90;;;;;;4978365;28;20038;-79
2022/02/27 01:14:50;;;;;;;9.07;3.00;;;2.10;99.90;;;;;;4994856;28;20038;-78
2022/02/27 01:17:16;;;;;;;10.63;3.43;;;2.10;99.90;;;;;;4977985;28;20383;-78
2022/02/27 01:19:41;;;;;;;13.00;3.40;;;2.00;99.90;;;;;;4977465;28;20030;-78
2022/02/27 01:22:07;;;;;;;8.13;3.53;;;2.00;99.90;;;;;;4977841;28;20463;-78
2022/02/27 01:24:33;;;;;;;7.70;2.97;;;2.00;99.90;;;;;;4993572;28;20038;-79
2022/02/27 01:26:58;;;;;;;6.47;3.03;;;1.90;99.90;;;;;;4977561;28;20034;-78
2022/02/27 01:29:24;;;;;;;7.57;3.50;;;1.80;99.90;;;;;;4995001;28;20030;-78
2022/02/27 01:31:49;;;;;;;7.33;2.80;;;1.80;99.90;;;;;;4976920;28;20040;-78
2022/02/27 01:34:15;;;;;;;8.23;3.40;;;1.80;99.90;;;;;;4977861;28;20463;-77
2022/02/27 01:36:41;;;;;;;6.93;3.20;;;1.60;99.90;;;;;;4976838;28;20030;-76
2022/02/27 01:39:06;;;;;;;11.53;3.33;;;1.60;99.90;;;;;;4977371;28;20023;-79
2022/02/27 01:41:32;;;;;;;6.07;2.77;;;1.60;99.90;;;;;;4976923;28;20564;-79
2022/02/27 01:43:58;;;;;;;6.87;3.00;;;1.60;99.90;;;;;;4977499;28;20037;-78
2022/02/27 01:46:24;;;;;;;8.57;3.03;;;1.60;99.90;;;;;;4977307;28;20026;-76
2022/02/27 01:48:49;;;;;;;8.37;3.00;;;1.60;99.90;;;;;;4994443;28;20034;-78
2022/02/27 01:51:15;;;;;;;7.83;3.03;;;1.70;99.90;;;;;;4977226;28;20041;-78
2022/02/27 01:53:41;;;;;;;9.00;3.10;;;1.70;99.90;;;;;;4994558;28;20022;-79
2022/02/27 01:56:07;;;;;;;9.10;2.90;;;1.80;99.90;;;;;;4995003;28;20029;-79
2022/02/27 01:58:32;;;;;;;12.30;2.70;;;1.80;99.90;;;;;;4977562;28;20092;-80
2022/02/27 02:00:59;;;;;;;12.57;3.53;;;1.90;99.90;;;;;;4977610;28;20038;-79
2022/02/27 02:03:26;;;;;;;8.23;2.73;;;1.90;99.90;;;;;;4977585;28;20030;-79
2022/02/27 02:05:52;;;;;;;7.67;2.90;;;1.90;99.90;;;;;;4977013;28;20050;-79
2022/02/27 02:08:18;;;;;;;7.33;3.13;;;1.80;99.90;;;;;;4976891;28;20444;-78
2022/02/27 02:10:43;;;;;;;6.60;2.97;;;1.80;99.90;;;;;;4975794;28;20030;-79
2022/02/27 02:13:10;;;;;;;6.27;2.40;;;1.70;99.90;;;;;;4994186;28;20022;-79
2022/02/27 02:15:36;;;;;;;10.53;3.10;;;1.70;99.90;;;;;;4976551;28;20113;-78
2022/02/27 02:18:05;;;;;;;10.70;3.03;;;1.60;99.90;;;;;;4976820;28;20579;-78
2022/02/27 02:20:31;;;;;;;10.33;2.60;;;1.50;99.90;;;;;;4976452;28;20031;-78
2022/02/27 02:22:57;;;;;;;8.60;2.83;;;1.50;99.90;;;;;;4993654;28;20102;-78
2022/02/27 02:25:23;;;;;;;9.83;3.20;;;1.50;99.90;;;;;;4976802;28;20436;-78
2022/02/27 02:27:48;;;;;;;6.40;2.97;;;1.50;99.90;;;;;;4975744;28;20022;-78
2022/02/27 02:30:14;;;;;;;6.90;2.80;;;1.40;99.90;;;;;;4975618;28;20092;-78
2022/02/27 02:32:54;;;;;;;11.37;3.00;;;1.40;99.90;;;;;;4975666;28;20030;-77
2022/02/27 02:35:20;;;;;;;6.47;2.93;;;1.40;99.90;;;;;;4993861;28;20033;-77
2022/02/27 02:37:46;;;;;;;9.37;3.20;;;1.40;99.90;;;;;;4975909;28;20031;-77
2022/02/27 02:40:13;;;;;;;9.40;3.30;;;1.30;99.90;;;;;;4976272;28;20061;-77
2022/02/27 02:42:43;;;;;;;7.53;3.20;;;1.30;99.90;;;;;;4975928;28;20471;-78
2022/02/27 02:45:11;;;;;;;10.30;3.17;;;1.20;99.90;;;;;;4975984;28;20026;-77
2022/02/27 02:47:45;;;;;;;8.60;3.00;;;1.20;99.90;;;;;;4975291;28;20027;-77
2022/02/27 02:50:12;;;;;;;11.23;3.50;;;1.10;99.90;;;;;;4975858;28;20069;-77
2022/02/27 02:52:38;;;;;;;9.33;3.77;;;1.10;99.90;;;;;;4975129;28;20034;-78
2022/02/27 02:55:10;;;;;;;9.40;3.37;;;1.20;99.90;;;;;;4991312;28;20030;-78
2022/02/27 02:57:36;;;;;;;6.90;2.83;;;1.20;99.90;;;;;;4993395;28;20023;-78
2022/02/27 03:00:04;;;;;;;8.10;2.87;;;1.20;99.90;;;;;;4993713;28;20218;-78
2022/02/27 03:02:30;;;;;;;8.67;3.40;;;1.30;99.90;;;;;;4992505;28;20038;-79
2022/02/27 03:04:55;;;;;;;9.87;3.47;;;1.30;99.90;;;;;;4992236;28;20026;-77
2022/02/27 03:07:21;;;;;;;11.03;4.20;;;1.30;99.90;;;;;;4984877;28;20031;-78
2022/02/27 03:09:46;;;;;;;9.60;3.73;;;1.20;99.90;;;;;;4975867;28;20085;-78
2022/02/27 03:12:12;;;;;;;11.97;3.47;;;1.10;99.90;;;;;;4975972;28;20080;-78
2022/02/27 03:14:38;;;;;;;12.43;3.53;;;1.00;99.90;;;;;;4993172;28;20036;-78
2022/02/27 03:17:03;;;;;;;15.87;3.60;;;1.00;99.90;;;;;;4975561;28;20418;-76
2022/02/27 03:19:29;;;;;;;14.63;4.60;;;0.90;99.90;;;;;;4975298;28;20080;-79
2022/02/27 03:21:55;;;;;;;10.70;3.00;;;0.90;99.90;;;;;;4992366;28;20045;-76
2022/02/27 03:24:20;;;;;;;14.17;3.53;;;0.90;99.90;;;;;;4975148;28;20057;-76
2022/02/27 03:26:46;;;;;;;6.23;2.80;;;0.90;99.90;;;;;;4974387;28;20030;-76
2022/02/27 03:29:12;;;;;;;10.93;3.47;;;0.90;99.90;;;;;;4974875;28;20068;-75
2022/02/27 03:31:38;;;;;;;8.33;3.57;;;0.90;99.90;;;;;;4974267;28;20046;-76
2022/02/27 03:34:03;;;;;;;11.30;3.87;;;1.00;99.90;;;;;;4975007;28;20499;-76
2022/02/27 03:36:29;;;;;;;10.17;3.00;;;0.90;99.90;;;;;;4992277;28;20026;-79
2022/02/27 03:38:55;;;;;;;8.90;2.93;;;1.00;99.90;;;;;;4974078;28;20038;-75
2022/02/27 03:41:20;;;;;;;11.03;3.13;;;1.00;99.90;;;;;;4975085;28;20053;-77
2022/02/27 03:43:46;;;;;;;8.30;3.10;;;1.00;99.90;;;;;;4974273;28;20518;-76
2022/02/27 03:46:12;;;;;;;6.83;3.00;;;1.00;99.90;;;;;;4975083;28;20023;-76
2022/02/27 03:48:37;;;;;;;6.30;2.37;;;1.00;99.90;;;;;;4991529;28;20478;-77
2022/02/27 03:51:03;;;;;;;10.53;3.23;;;1.10;99.90;;;;;;4974742;28;20440;-77
2022/02/27 03:53:29;;;;;;;7.07;2.73;;;1.10;99.90;;;;;;4974863;28;20026;-77
2022/02/27 03:55:54;;;;;;;10.13;3.27;;;1.10;99.90;;;;;;4974084;28;20034;-77
2022/02/27 03:58:20;;;;;;;8.60;2.90;;;1.10;99.90;;;;;;4975524;28;20034;-77
2022/02/27 04:00:45;;;;;;;7.80;2.90;;;1.10;99.90;;;;;;4975098;28;20480;-76
2022/02/27 04:03:12;;;;;;;7.00;3.00;;;1.10;99.90;;;;;;4975722;28;20030;-76
2022/02/27 04:05:37;;;;;;;11.47;2.93;;;1.10;99.90;;;;;;4977123;28;20026;-78
2022/02/27 04:08:04;;;;;;;8.07;3.00;;;1.10;99.90;;;;;;4981927;28;20048;-77
2022/02/27 04:10:30;;;;;;;8.57;2.57;;;1.10;99.90;;;;;;4998606;28;20479;-77
2022/02/27 04:12:56;;;;;;;9.23;3.07;;;1.10;99.90;;;;;;4998541;28;20034;-77
2022/02/27 04:15:22;;;;;;;9.67;3.40;;;1.00;99.90;;;;;;4998594;28;20029;-76
2022/02/27 04:17:48;;;;;;;8.57;2.80;;;1.10;99.90;;;;;;4998045;28;20395;-76
2022/02/27 04:20:13;;;;;;;10.73;2.70;;;1.10;99.90;;;;;;4998546;28;20030;-77
2022/02/27 04:22:39;;;;;;;7.53;2.60;;;1.00;99.90;;;;;;5015633;28;20489;-78
2022/02/27 04:25:05;;;;;;;11.43;3.33;;;1.10;99.90;;;;;;5015994;28;20039;-76
2022/02/27 04:27:31;;;;;;;6.20;2.30;;;1.00;99.90;;;;;;4998113;28;20025;-76
2022/02/27 04:29:57;;;;;;;6.90;2.70;;;0.80;99.90;;;;;;4997343;28;20077;-76
2022/02/27 04:32:22;;;;;;;9.43;2.47;;;0.70;99.90;;;;;;5015561;28;20461;-76
2022/02/27 04:34:48;;;;;;;5.30;2.70;;;0.60;99.90;;;;;;4997719;28;20036;-76
2022/02/27 04:37:14;;;;;;;7.57;2.87;;;0.70;99.90;;;;;;4998183;28;20054;-76
2022/02/27 04:39:40;;;;;;;8.50;2.77;;;0.60;99.90;;;;;;4994068;28;20050;-76
2022/02/27 04:42:06;;;;;;;7.00;2.37;;;0.60;99.90;;;;;;4994789;28;20048;-76
2022/02/27 04:44:31;;;;;;;8.10;2.30;;;0.60;99.90;;;;;;4994714;28;20073;-76
2022/02/27 04:46:57;;;;;;;10.50;2.60;;;0.60;99.90;;;;;;4994322;28;20031;-76
2022/02/27 04:49:23;;;;;;;6.37;2.43;;;0.70;99.90;;;;;;4994804;28;20057;-75
2022/02/27 04:51:48;;;;;;;12.40;2.40;;;0.70;99.90;;;;;;4993593;28;20042;-76
2022/02/27 04:54:14;;;;;;;7.20;2.77;;;0.80;99.90;;;;;;4994687;28;20061;-76
2022/02/27 04:56:40;;;;;;;7.67;2.33;;;0.80;99.90;;;;;;4995084;28;20430;-76
2022/02/27 04:59:05;;;;;;;5.00;2.30;;;0.90;99.90;;;;;;4994677;28;20550;-76
2022/02/27 05:01:31;;;;;;;5.57;2.37;;;0.90;99.90;;;;;;4994730;28;20451;-77
2022/02/27 05:03:57;;;;;;;7.30;2.40;;;0.90;99.90;;;;;;4995111;28;20741;-77
2022/02/27 05:06:23;;;;;;;8.67;2.47;;;1.00;99.90;;;;;;4994468;28;20050;-77
2022/02/27 05:08:48;;;;;;;12.43;2.60;;;1.00;99.90;;;;;;4993346;28;20033;-76
2022/02/27 05:11:14;;;;;;;9.80;2.70;;;1.00;99.90;;;;;;4994211;28;20030;-78
2022/02/27 05:13:39;;;;;;;5.33;2.40;;;1.00;99.90;;;;;;4994243;28;20038;-79
2022/02/27 05:16:05;;;;;;;10.30;2.60;;;1.10;99.90;;;;;;4994468;28;20534;-78
2022/02/27 05:18:31;;;;;;;11.97;2.93;;;1.10;99.90;;;;;;4994957;28;20026;-78
2022/02/27 05:20:56;;;;;;;8.10;2.23;;;1.10;99.90;;;;;;4993653;28;20053;-78
2022/02/27 05:23:22;;;;;;;6.40;2.53;;;1.10;99.90;;;;;;4994241;28;20030;-78
2022/02/27 05:25:48;;;;;;;6.37;2.20;;;1.20;99.90;;;;;;4993937;28;20053;-78
2022/02/27 05:28:13;;;;;;;9.20;2.63;;;1.20;99.90;;;;;;4994160;28;20057;-78
2022/02/27 05:30:39;;;;;;;8.30;3.20;;;1.20;99.90;;;;;;4994758;28;20109;-78
2022/02/27 05:33:04;;;;;;;6.87;2.40;;;1.20;99.90;;;;;;4994275;28;20134;-76
2022/02/27 05:35:30;;;;;;;10.33;2.60;;;1.30;99.90;;;;;;4993864;28;20058;-77
2022/02/27 05:37:56;;;;;;;5.63;2.43;;;1.20;99.90;;;;;;4993459;28;20282;-77
2022/02/27 05:40:21;;;;;;;5.50;2.43;;;1.20;99.90;;;;;;4993463;28;20054;-77
2022/02/27 05:42:47;;;;;;;8.63;2.50;;;1.20;99.90;;;;;;4994528;28;20072;-76
2022/02/27 05:45:13;;;;;;;8.13;2.80;;;1.20;99.90;;;;;;4993480;28;20452;-76
2022/02/27 05:47:38;;;;;;;11.33;2.77;;;1.30;99.90;;;;;;4993080;28;20379;-78
2022/02/27 05:50:06;;;;;;;7.97;3.00;;;1.30;99.90;;;;;;4993077;28;20414;-76
2022/02/27 05:52:31;;;;;;;7.60;2.60;;;1.30;99.90;;;;;;4994118;28;20030;-76
2022/02/27 05:54:57;;;;;;;9.07;2.90;;;1.30;99.90;;;;;;4992638;28;20626;-76
2022/02/27 05:57:23;;;;;;;9.30;2.80;;;1.20;99.90;;;;;;4993469;28;20452;-76
2022/02/27 05:59:49;;;;;;;6.67;2.50;;;1.20;99.90;;;;;;4993014;28;20539;-76
2022/02/27 06:02:14;;;;;;;9.67;2.57;;;1.20;99.90;;;;;;4993294;28;20040;-76
2022/02/27 06:04:40;;;;;;;8.43;2.67;;;1.30;99.90;;;;;;4994135;28;20026;-77
2022/02/27 06:07:05;;;;;;;6.23;2.80;;;1.20;99.90;;;;;;4993197;28;20030;-76
2022/02/27 06:09:31;;;;;;;6.40;2.60;;;1.20;99.90;;;;;;4994414;28;20030;-76
2022/02/27 06:11:57;;;;;;;10.30;2.80;;;1.20;99.90;;;;;;4992630;28;20041;-76
2022/02/27 06:14:23;;;;;;;5.90;2.70;;;1.10;99.90;;;;;;4993288;28;20030;-76
2022/02/27 06:16:49;;;;;;;7.37;3.10;;;1.10;99.90;;;;;;4992745;28;20031;-76
2022/02/27 06:19:14;;;;;;;7.40;2.63;;;1.20;99.90;;;;;;4993219;28;20188;-76
2022/02/27 06:21:40;;;;;;;6.30;2.80;;;1.20;99.90;;;;;;4992372;28;20026;-79
2022/02/27 06:24:06;;;;;;;12.17;2.73;;;1.20;99.90;;;;;;4992377;28;20030;-76
2022/02/27 06:26:34;;;;;;;12.23;2.87;;;1.20;99.90;;;;;;4993541;28;20027;-76
2022/02/27 06:29:01;;;;;;;11.27;2.80;;;1.20;99.90;;;;;;4993337;28;20177;-76
2022/02/27 06:31:26;;;;;;;8.70;2.37;;;1.30;99.90;;;;;;4992307;28;20395;-77
2022/02/27 06:33:52;;;;;;;5.40;2.43;;;1.20;99.90;;;;;;4991881;28;20026;-77
2022/02/27 06:36:18;;;;;;;8.60;2.97;;;1.30;99.90;;;;;;4993577;28;20030;-76
2022/02/27 06:38:43;;;;;;;9.87;3.30;;;1.30;99.90;;;;;;4992116;28;20478;-79
2022/02/27 06:41:12;;;;;;;8.00;2.60;;;1.30;99.90;;;;;;4992000;28;20058;-76
2022/02/27 06:43:38;;;;;;;11.63;2.80;;;1.20;99.90;;;;;;4992292;28;20026;-76
2022/02/27 06:46:05;;;;;;;6.33;2.80;;;1.20;99.90;;;;;;4991703;28;20782;-76
2022/02/27 06:48:30;;;;;;;8.43;2.97;;;1.20;99.90;;;;;;4992454;28;20349;-77
2022/02/27 06:50:56;;;;;;;9.57;2.83;;;1.20;99.90;;;;;;4991690;28;20125;-77
2022/02/27 06:53:21;;;;;;;6.90;2.80;;;1.20;99.90;;;;;;4992353;28;20478;-77
2022/02/27 06:55:49;;;;;;;8.10;2.57;;;1.20;99.90;;;;;;4991765;28;20033;-78
2022/02/27 06:58:15;;;;;;;6.80;2.80;;;1.20;99.90;;;;;;4992782;28;20038;-77
2022/02/27 07:00:40;;;;;;;9.33;3.20;;;1.30;99.90;;;;;;4994171;28;20106;-77
2022/02/27 07:03:06;;;;;;;9.03;3.20;;;1.30;99.90;;;;;;4992064;28;20387;-76
2022/02/27 07:05:32;;;;;;;6.17;2.90;;;1.30;99.90;;;;;;4992536;28;20177;-76
2022/02/27 07:07:57;;;;;;;7.70;2.70;;;1.40;99.90;;;;;;4991667;28;20136;-77
2022/02/27 07:10:23;;;;;;;11.27;3.10;;;1.30;99.90;;;;;;4993411;28;20034;-77
2022/02/27 07:12:48;;;;;;;8.57;3.03;;;1.30;99.90;;;;;;4992980;28;20035;-78
2022/02/27 07:15:15;;;;;;;8.50;3.00;;;1.40;99.90;;;;;;4992568;28;20029;-78
2022/02/27 07:17:40;;;;;;;9.83;2.97;;;1.40;99.90;;;;;;4992644;28;20072;-78
2022/02/27 07:20:06;;;;;;;9.50;3.23;;;1.40;99.90;;;;;;4992014;28;20382;-78
2022/02/27 07:22:37;;;;;;;9.30;3.30;;;1.50;99.90;;;;;;4992740;28;20030;-79
2022/02/27 07:25:04;;;;;;;7.97;3.27;;;1.50;99.90;;;;;;4993167;28;20034;-79
2022/02/27 07:27:31;;;;;;;9.60;3.43;;;1.50;99.90;;;;;;4992348;28;20023;-78
2022/02/27 07:29:58;;;;;;;10.17;3.80;;;1.60;99.90;;;;;;4991283;28;20038;-78
2022/02/27 07:32:23;;;;;;;8.30;2.87;;;1.60;99.90;;;;;;4992490;28;20471;-78
2022/02/27 07:34:49;;;;;;;11.27;3.93;;;1.80;99.90;;;;;;4992005;28;20037;-78
2022/02/27 07:37:14;;;;;;;11.90;5.30;;;1.90;99.90;;;;;;4992562;28;20035;-78
2022/02/27 07:39:40;;;;;;;11.47;3.60;;;1.90;99.90;;;;;;4992175;28;20050;-79
2022/02/27 07:42:06;;;;;;;8.47;3.40;;;1.90;99.90;;;;;;4996171;28;20093;-77
2022/02/27 07:44:32;;;;;;;13.00;5.07;;;2.00;99.90;;;;;;4995634;28;20073;-77
2022/02/27 07:46:57;;;;;;;11.97;4.77;;;2.10;99.90;;;;;;4995213;28;20463;-77
2022/02/27 07:49:23;;;;;;;9.17;4.10;;;2.10;99.90;;;;;;4995616;28;20065;-76
2022/02/27 07:51:49;;;;;;;8.87;3.60;;;2.20;99.90;;;;;;4996491;28;20120;-77
2022/02/27 07:54:14;;;;;;;7.53;3.37;;;2.30;99.90;;;;;;4995689;28;20100;-76
2022/02/27 07:56:40;;;;;;;9.93;3.70;;;2.30;99.90;;;;;;4995426;28;20026;-76
2022/02/27 07:59:06;;;;;;;9.03;3.60;;;2.40;99.90;;;;;;4994702;28;20623;-77
2022/02/27 08:01:33;;;;;;;9.33;3.77;;;2.40;99.90;;;;;;4995146;28;20038;-77
2022/02/27 08:03:59;;;;;;;9.27;3.70;;;2.50;99.90;;;;;;4995738;28;20025;-77
2022/02/27 08:06:24;;;;;;;7.37;3.50;;;2.50;99.90;;;;;;4994904;28;20547;-77
2022/02/27 08:08:50;;;;;;;8.87;3.33;;;2.50;99.90;;;;;;4994194;28;20030;-77
2022/02/27 08:11:16;;;;;;;8.13;3.77;;;2.60;99.90;;;;;;4996313;28;20427;-78
2022/02/27 08:13:41;;;;;;;9.60;3.40;;;2.70;99.90;;;;;;4994841;28;20034;-77
2022/02/27 08:16:07;;;;;;;7.57;3.17;;;2.70;99.90;;;;;;4994782;28;20082;-78
2022/02/27 08:18:34;;;;;;;8.70;3.37;;;2.80;99.90;;;;;;4995073;28;20038;-78
2022/02/27 08:21:00;;;;;;;10.13;3.67;;;2.70;99.90;;;;;;4996190;28;20026;-78
2022/02/27 08:23:26;;;;;;;5.47;3.03;;;2.80;99.90;;;;;;4995335;28;20117;-78
2022/02/27 08:25:53;;;;;;;9.27;3.13;;;2.90;99.90;;;;;;4994264;28;20022;-79
2022/02/27 08:28:20;;;;;;;6.87;3.20;;;3.00;99.90;;;;;;4994713;28;20085;-77
2022/02/27 08:30:46;;;;;;;10.17;3.10;;;3.00;99.90;;;;;;4994701;28;20065;-78
2022/02/27 08:33:12;;;;;;;7.50;3.37;;;3.10;99.90;;;;;;4994570;28;20472;-78
2022/02/27 08:35:37;;;;;;;6.33;2.90;;;3.20;99.90;;;;;;4994915;28;20072;-76
2022/02/27 08:38:04;;;;;;;10.03;3.20;;;3.30;99.90;;;;;;4995273;28;20022;-76
2022/02/27 08:40:29;;;;;;;10.73;3.73;;;3.30;99.90;;;;;;4994636;28;20507;-76
2022/02/27 08:42:58;;;;;;;11.67;3.20;;;3.40;99.90;;;;;;4994181;28;20039;-76
2022/02/27 08:45:24;;;;;;;11.77;3.50;;;3.40;99.90;;;;;;4994584;28;20026;-76
2022/02/27 08:47:51;;;;;;;7.37;3.67;;;3.50;99.90;;;;;;4994481;28;20045;-79
2022/02/27 08:50:17;;;;;;;7.87;3.23;;;3.50;99.90;;;;;;4994463;28;20173;-76
2022/02/27 08:52:43;;;;;;;13.13;3.30;;;3.60;99.90;;;;;;4993291;28;20070;-77
2022/02/27 08:55:11;;;;;;;6.00;3.30;;;3.60;99.90;;;;;;4993979;28;20033;-76
2022/02/27 08:57:37;;;;;;;8.73;3.77;;;3.70;99.90;;;;;;4994363;28;20026;-77
2022/02/27 09:00:09;;;;;;;10.57;3.83;;;3.70;99.90;;;;;;4994941;28;20041;-77
2022/02/27 09:02:34;;;;;;;11.38;5.05;;;3.80;99.90;;;;;;4994702;28;20037;-77
2022/02/27 09:05:00;;;;;;;5.70;3.17;;;3.80;99.90;;;;;;4993742;28;20026;-77
2022/02/27 09:07:26;;;;;;;10.30;4.30;;;3.80;99.90;;;;;;4994093;28;20034;-77
2022/02/27 09:09:52;;;;;;;7.33;2.73;;;3.80;99.90;;;;;;4993773;28;20030;-80
2022/02/27 09:12:18;;;;;;;4.97;2.90;;;4.00;99.90;;;;;;4994446;28;20030;-78
2022/02/27 09:14:45;;;;;;;8.23;2.90;;;4.10;99.90;;;;;;4994133;28;20529;-76
2022/02/27 09:17:12;;;;;;;6.50;2.80;;;4.20;99.90;;;;;;4993076;28;20026;-76
2022/02/27 09:19:37;;;;;;;6.00;2.47;;;4.30;99.90;;;;;;4995338;28;20022;-76
2022/02/27 09:22:03;;;;;;;8.67;2.73;;;4.40;99.90;;;;;;4992971;28;20041;-76
2022/02/27 09:24:29;;;;;;;6.40;2.70;;;4.40;99.90;;;;;;4993610;28;20383;-76
2022/02/27 09:26:55;;;;;;;5.80;2.80;;;4.40;99.90;;;;;;4994228;28;20030;-77
2022/02/27 09:29:20;;;;;;;12.67;2.50;;;4.40;99.90;;;;;;4994495;28;20162;-76
2022/02/27 09:31:46;;;;;;;7.67;2.80;;;4.50;99.90;;;;;;4993446;28;20038;-76
2022/02/27 09:34:12;;;;;;;7.47;2.47;;;4.60;99.90;;;;;;4992868;28;20041;-77
2022/02/27 09:36:38;;;;;;;6.33;2.77;;;4.70;99.90;;;;;;4993540;28;20030;-76
2022/02/27 09:39:05;;;;;;;7.77;3.07;;;4.70;99.90;;;;;;4994790;28;20030;-76
2022/02/27 09:41:30;;;;;;;4.53;2.53;;;4.80;99.90;;;;;;5013908;28;20459;-77
2022/02/27 09:44:01;;;;;;;5.10;2.23;;;4.90;99.90;;;;;;4996146;28;20124;-77
2022/02/27 09:46:28;;;;;;;5.93;2.43;;;5.00;99.90;;;;;;4996863;28;20069;-77
2022/02/27 09:48:54;;;;;;;6.33;2.47;;;5.20;99.90;;;;;;4996422;28;20068;-79
2022/02/27 09:51:20;;;;;;;9.33;2.70;;;5.10;99.00;;;;;;4997029;28;20034;-78
2022/02/27 09:53:47;;;;;;;4.33;2.40;;;5.10;99.70;;;;;;4996761;28;20430;-77
2022/02/27 09:56:12;;;;;;;7.63;3.07;;;5.20;99.50;;;;;;4996371;28;20257;-77
2022/02/27 09:58:39;;;;;;;3.37;2.20;;;5.30;99.90;;;;;;4996035;28;20513;-77
2022/02/27 10:01:05;;;;;;;6.83;2.70;;;5.30;99.80;;;;;;5004813;28;20034;-77
2022/02/27 10:03:33;;;;;;;8.43;2.90;;;5.30;99.20;;;;;;4976785;28;20117;-78
2022/02/27 10:06:04;;;;;;;6.37;2.47;;;5.40;99.80;;;;;;4976682;28;20022;-77
2022/02/27 10:08:40;;;;;;;9.73;3.40;;;5.50;99.10;;;;;;4977195;28;20034;-77
2022/02/27 10:11:07;;;;;;;5.60;2.43;;;5.50;99.00;;;;;;4976329;28;20042;-77
2022/02/27 10:13:36;;;;;;;8.07;2.60;;;5.60;98.50;;;;;;4976899;28;20120;-77
2022/02/27 10:16:15;;;;;;;4.47;2.57;;;5.60;98.50;;;;;;4975994;28;20022;-78
2022/02/27 10:18:45;;;;;;;5.70;2.33;;;5.60;98.80;;;;;;4976360;28;20116;-77
2022/02/27 10:21:43;;;;;;;5.87;2.50;;;5.60;98.20;;;;;;4992856;28;20038;-77
2022/02/27 10:24:14;;;;;;;5.00;2.90;;;5.70;97.20;;;;;;4985365;28;20039;-77
2022/02/27 10:26:42;;;;;;;4.20;2.60;;;5.80;97.50;;;;;;4976687;28;20030;-77
2022/02/27 10:29:09;;;;;;;5.17;2.40;;;5.80;97.30;;;;;;4976328;28;20033;-77
2022/02/27 10:31:37;;;;;;;7.07;2.47;;;5.80;96.60;;;;;;4993685;28;20042;-76
2022/02/27 10:34:18;;;;;;;4.87;2.60;;;5.80;96.90;;;;;;4975650;28;20066;-76
2022/02/27 10:37:16;;;;;;;5.07;2.58;;;5.90;96.30;;;;;;4993743;28;20023;-76
2022/02/27 10:39:48;;;;;;;5.73;2.80;;;5.90;95.80;;;;;;4954565;28;20083;-76
2022/02/27 10:42:19;;;;;;;9.00;3.10;;;6.00;96.50;;;;;;4975528;28;20645;-76
2022/02/27 10:44:54;;;;;;;5.80;2.88;;;6.00;95.80;;;;;;4976743;28;20037;-77
2022/02/27 10:47:40;;;;;;;7.60;2.73;;;6.10;96.70;;;;;;4993741;28;20053;-77
2022/02/27 10:50:11;;;;;;;5.37;2.30;;;6.10;94.90;;;;;;4975178;28;20141;-78
2022/02/27 10:52:44;;;;;;;6.75;2.78;;;6.30;95.40;;;;;;4975956;28;20041;-77
2022/02/27 10:55:11;;;;;;;6.73;2.63;;;6.30;94.80;;;;;;4975759;28;20065;-77
2022/02/27 10:57:46;;;;;;;4.27;2.67;;;6.40;95.30;;;;;;4976384;28;20023;-76
2022/02/27 11:00:13;;;;;;;5.17;2.37;;;6.40;93.60;;;;;;4976054;28;20045;-77
2022/02/27 11:02:39;;;;;;;4.50;2.33;;;6.50;94.10;;;;;;4993687;28;20084;-77
2022/02/27 11:05:10;;;;;;;8.50;2.83;;;6.50;94.30;;;;;;4975717;28;20129;-77
2022/02/27 11:07:39;;;;;;;5.63;2.60;;;6.60;94.40;;;;;;4976075;28;20030;-77
2022/02/27 11:10:10;;;;;;;4.70;2.40;;;6.60;93.90;;;;;;4975219;28;20061;-77
2022/02/27 11:12:36;;;;;;;5.10;2.43;;;6.60;93.30;;;;;;4975915;28;20045;-77
2022/02/27 11:15:08;;;;;;;8.57;2.70;;;6.60;94.20;;;;;;4975983;28;20026;-78
2022/02/27 11:17:34;;;;;;;5.22;2.35;;;6.80;93.70;;;;;;4979654;28;20019;-76
2022/02/27 11:20:01;;;;;;;7.03;2.40;;;6.80;92.80;;;;;;4977660;28;20034;-80
2022/02/27 11:22:31;;;;;;;4.83;2.60;;;6.80;92.50;;;;;;4980552;28;20081;-80
2022/02/27 11:24:57;;;;;;;8.13;3.00;;;6.90;93.30;;;;;;4980490;28;20081;-81
2022/02/27 11:27:27;;;;;;;5.93;2.40;;;6.90;93.40;;;;;;4997202;28;20045;-76
2022/02/27 11:29:59;;;;;;;5.43;2.80;;;6.90;92.40;;;;;;4978004;28;20053;-78
2022/02/27 11:32:26;;;;;;;;;;;6.90;91.80;;;;;;4979691;28;20089;-76
2022/02/27 11:34:52;;;;;;;5.30;2.10;;;7.20;93.40;;;;;;4979746;28;19906;-78
2022/02/27 11:37:50;;;;;;;3.37;2.20;;;7.30;91.90;;;;;;4978973;28;20030;-79
2022/02/27 11:40:29;;;;;;;4.73;1.90;;;7.30;90.20;;;;;;4978934;28;20370;-78
2022/02/27 11:43:00;;;;;;;3.63;2.03;;;7.30;88.10;;;;;;4979664;28;20037;-78
2022/02/27 11:45:32;;;;;;;5.30;1.80;;;7.30;85.60;;;;;;4979713;28;20033;-79
2022/02/27 11:47:59;;;;;;;3.78;1.73;;;7.40;85.40;;;;;;4979474;28;20030;-78
2022/02/27 11:50:27;;;;;;;4.20;1.83;;;7.60;81.20;;;;;;4996439;28;20026;-78
2022/02/27 11:52:53;;;;;;;3.17;1.87;;;7.70;82.50;;;;;;4979565;28;20026;-78
2022/02/27 11:55:39;;;;;;;3.60;1.80;;;7.90;81.80;;;;;;4978705;28;20036;-78
2022/02/27 11:58:04;;;;;;;3.83;1.40;;;7.90;74.90;;;;;;4978491;28;20100;-79
2022/02/27 12:00:39;;;;;;;2.67;1.30;;;7.90;74.00;;;;;;4996230;28;20062;-78
2022/02/27 12:03:30;;;;;;;1.53;1.40;;;7.90;74.10;;;;;;4977938;28;20078;-78
2022/02/27 12:05:57;;;;;;;2.37;1.40;;;8.00;69.70;;;;;;4978448;28;20033;-77
2022/02/27 12:08:41;;;;;;;4.07;1.63;;;7.90;69.60;;;;;;4978193;28;20264;-77
2022/02/27 12:11:29;;;;;;;2.58;1.42;;;8.00;73.10;;;;;;4978342;28;20034;-78
2022/02/27 12:14:08;;;;;;;2.35;1.45;;;8.20;71.50;;;;;;4979057;28;20038;-78
2022/02/27 12:16:40;;;;;;;3.30;1.77;;;8.40;69.70;;;;;;4978951;28;20348;-78
2022/02/27 12:19:25;;;;;;;4.05;1.35;;;8.60;70.10;;;;;;4995410;28;20023;-78
2022/02/27 12:21:56;;;;;;;4.38;1.50;;;8.80;68.60;;;;;;4995448;28;20042;-78
2022/02/27 12:24:28;;;;;;;3.90;1.55;;;8.90;69.40;;;;;;4962082;28;20019;-78
2022/02/27 12:26:58;;;;;;;5.30;1.70;;;9.20;67.20;;;;;;4978140;28;20062;-78
2022/02/27 12:29:46;;;;;;;3.42;1.67;;;9.30;64.40;;;;;;4965488;28;20113;-79
2022/02/27 12:32:22;;;;;;;5.47;2.13;;;9.50;62.00;;;;;;4977054;28;20034;-79
2022/02/27 12:34:56;;;;;;;5.78;1.75;;;9.60;59.50;;;;;;4995813;28;20038;-78
2022/02/27 12:37:23;;;;;;;2.97;1.60;;;9.90;60.60;;;;;;4977657;28;20037;-79
2022/02/27 12:39:52;;;;;;;2.95;1.60;;;10.00;59.50;;;;;;4974877;28;20046;-78
2022/02/27 12:42:21;;;;;;;3.13;1.55;;;10.20;58.20;;;;;;4974366;28;20022;-78
2022/02/27 12:44:55;;;;;;;4.28;1.73;;;10.40;57.50;;;;;;4974492;28;20117;-78
2022/02/27 12:47:22;;;;;;;3.63;1.80;;;10.60;57.10;;;;;;4974271;28;20073;-79
2022/02/27 12:52:38;;;;;;;2.75;1.50;;;11.00;54.40;;;;;;4975185;28;20049;-79
2022/02/27 12:55:24;;;;;;;5.70;1.67;;;11.20;54.00;;;;;;4976004;28;20464;-80
2022/02/27 12:57:52;;;;;;;2.60;1.10;;;11.40;52.10;;;;;;4975766;28;20066;-79
2022/02/27 13:00:24;;;;;;;3.28;1.38;;;11.60;53.10;;;;;;4976180;28;20042;-80